createdAt,value
2023-04-03T00:00:36.049Z,5.26
2023-04-03T00:03:05.238Z,5.23
2023-04-03T00:05:35.739Z,5.27
2023-04-03T00:08:05.799Z,5.28
2023-04-03T00:10:34.931Z,5.30
2023-04-03T00:13:03.817Z,5.30
2023-04-03T00:15:32.792Z,5.30
2023-04-03T00:18:01.886Z,5.27
2023-04-03T00:20:30.992Z,5.26
2023-04-03T00:23:01.480Z,5.28
2023-04-03T00:25:30.469Z,5.27
2023-04-03T00:27:59.210Z,5.25
2023-04-03T00:30:28.423Z,5.30
2023-04-03T00:32:57.620Z,5.25
2023-04-03T00:35:27.153Z,5.39
2023-04-03T00:37:57.078Z,5.37
2023-04-03T00:40:29.038Z,5.36
2023-04-03T00:43:00.744Z,5.32
2023-04-03T00:45:34.881Z,5.35
2023-04-03T00:48:08.057Z,5.35
2023-04-03T00:50:40.038Z,5.27
2023-04-03T00:53:13.832Z,5.36
2023-04-03T00:55:45.284Z,5.34
2023-04-03T00:58:16.745Z,5.36
2023-04-03T01:00:51.028Z,5.40
2023-04-03T01:03:19.783Z,5.48
2023-04-03T01:05:48.607Z,5.47
2023-04-03T01:08:17.620Z,5.45
2023-04-03T01:10:47.750Z,5.47
2023-04-03T01:13:27.201Z,5.48
2023-04-03T01:15:56.719Z,5.38
2023-04-03T01:18:27.538Z,5.39
2023-04-03T01:21:26.826Z,5.38
2023-04-03T01:24:27.687Z,5.37
2023-04-03T01:26:58.273Z,5.33
2023-04-03T01:29:27.224Z,5.30
2023-04-03T01:31:59.442Z,5.25
2023-04-03T01:34:30.179Z,5.17
2023-04-03T01:36:59.435Z,5.15
2023-04-03T01:39:28.319Z,5.13
2023-04-03T01:41:57.184Z,5.11
2023-04-03T01:44:32.106Z,5.01
2023-04-03T01:47:02.529Z,5.03
2023-04-03T01:49:32.652Z,5.01
2023-04-03T01:52:01.623Z,4.96
2023-04-03T01:54:30.520Z,4.95
2023-04-03T01:56:59.300Z,4.93
2023-04-03T01:59:29.252Z,4.93
2023-04-03T02:01:58.555Z,4.92
2023-04-03T02:04:28.693Z,4.94
2023-04-03T02:06:59.052Z,4.97
2023-04-03T02:09:27.892Z,4.98
2023-04-03T02:11:57.153Z,4.95
2023-04-03T02:14:28.225Z,4.93
2023-04-03T02:16:57.124Z,4.93
2023-04-03T02:19:25.953Z,4.90
2023-04-03T02:21:56.232Z,4.88
2023-04-03T02:24:25.203Z,4.88
2023-04-03T02:26:53.968Z,4.87
2023-04-03T02:29:24.122Z,4.89
2023-04-03T02:31:54.171Z,4.88
2023-04-03T02:34:24.719Z,4.98
2023-04-03T02:36:56.044Z,4.99
2023-04-03T02:39:25.100Z,4.96
2023-04-03T02:41:54.278Z,4.98
2023-04-03T02:44:26.406Z,5.00
2023-04-03T02:46:55.572Z,5.04
2023-04-03T02:49:25.596Z,5.00
2023-04-03T02:51:55.893Z,4.99
2023-04-03T02:54:28.839Z,4.97
2023-04-03T02:57:00.486Z,4.90
2023-04-03T02:59:29.379Z,4.93
2023-04-03T03:01:58.349Z,4.90
2023-04-03T03:04:27.192Z,4.90
2023-04-03T03:06:57.303Z,4.90
2023-04-03T03:09:26.864Z,4.86
2023-04-03T03:11:56.095Z,4.85
2023-04-03T03:14:25.024Z,4.80
2023-04-03T03:16:53.879Z,4.78
2023-04-03T03:19:22.623Z,4.79
2023-04-03T03:21:52.493Z,4.75
2023-04-03T03:24:22.653Z,4.79
2023-04-03T03:26:51.455Z,4.77
2023-04-03T03:29:20.203Z,4.78
2023-04-03T03:31:49.523Z,4.86
2023-04-03T03:34:18.335Z,4.90
2023-04-03T03:36:47.195Z,4.93
2023-04-03T03:39:16.393Z,4.91
2023-04-03T03:41:46.870Z,4.90
2023-04-03T03:44:17.172Z,4.90
2023-04-03T03:46:45.980Z,4.85
2023-04-03T03:49:14.961Z,4.84
2023-04-03T03:51:43.784Z,4.80
2023-04-03T03:54:13.275Z,4.73
2023-04-03T03:56:42.006Z,4.72
2023-04-03T03:59:14.042Z,4.76
2023-04-03T04:01:43.942Z,4.79
2023-04-03T04:04:12.791Z,4.80
2023-04-03T04:06:41.713Z,4.85
2023-04-03T04:09:13.512Z,4.86
2023-04-03T04:11:42.413Z,4.90
2023-04-03T04:14:15.447Z,4.98
2023-04-03T04:16:46.169Z,4.98
2023-04-03T04:19:20.128Z,5.01
2023-04-03T04:21:49.130Z,5.03
2023-04-03T04:24:18.053Z,5.05
2023-04-03T04:26:47.546Z,5.08
2023-04-03T04:29:19.807Z,5.06
2023-04-03T04:31:51.667Z,5.04
2023-04-03T04:34:20.446Z,5.10
2023-04-03T04:36:49.864Z,5.12
2023-04-03T04:39:18.764Z,5.15
2023-04-03T04:41:47.496Z,5.18
2023-04-03T04:44:16.570Z,5.19
2023-04-03T04:46:46.816Z,5.13
2023-04-03T04:49:15.889Z,5.17
2023-04-03T04:51:52.131Z,5.19
2023-04-03T04:54:28.009Z,5.21
2023-04-03T04:56:56.945Z,5.25
2023-04-03T04:59:25.953Z,5.28
2023-04-03T05:01:59.149Z,5.26
2023-04-03T05:04:29.148Z,5.30
2023-04-03T05:07:05.172Z,5.31
2023-04-03T05:09:37.979Z,5.34
2023-04-03T05:12:07.465Z,5.34
2023-04-03T05:14:42.664Z,5.38
2023-04-03T05:17:14.747Z,5.38
2023-04-03T05:19:48.694Z,5.43
2023-04-03T05:22:18.807Z,5.47
2023-04-03T05:24:47.576Z,5.50
2023-04-03T05:27:18.169Z,5.56
2023-04-03T05:29:52.956Z,5.61
2023-04-03T05:32:26.237Z,5.59
2023-04-03T05:35:04.756Z,5.59
2023-04-03T05:37:33.865Z,5.62
2023-04-03T05:40:02.890Z,5.62
2023-04-03T05:42:32.174Z,5.63
2023-04-03T05:45:01.442Z,5.63
2023-04-03T05:47:31.876Z,5.69
2023-04-03T05:50:01.543Z,5.76
2023-04-03T05:52:33.732Z,5.81
2023-04-03T05:55:03.046Z,5.82
2023-04-03T05:57:33.958Z,5.85
2023-04-03T06:00:03.252Z,5.83
2023-04-03T06:02:34.106Z,5.79
2023-04-03T06:05:04.130Z,5.82
2023-04-03T06:07:32.922Z,5.86
2023-04-03T06:10:02.534Z,5.89
2023-04-03T06:12:31.894Z,5.87
2023-04-03T06:15:00.811Z,5.84
2023-04-03T06:17:31.099Z,5.82
2023-04-03T06:20:01.521Z,5.85
2023-04-03T06:22:31.150Z,5.79
2023-04-03T06:25:00.411Z,5.86
2023-04-03T06:27:30.453Z,5.87
2023-04-03T06:29:59.118Z,5.93
2023-04-03T06:32:27.972Z,5.99
2023-04-03T06:34:56.744Z,5.98
2023-04-03T06:37:29.887Z,5.93
2023-04-03T06:39:58.953Z,5.97
2023-04-03T06:42:27.603Z,6.02
2023-04-03T06:45:10.849Z,6.02
2023-04-03T06:47:39.669Z,6.01
2023-04-03T06:50:10.274Z,6.01
2023-04-03T06:52:41.162Z,6.07
2023-04-03T06:55:11.551Z,6.13
2023-04-03T06:57:40.332Z,6.17
2023-04-03T07:00:11.556Z,6.16
2023-04-03T07:02:40.668Z,6.20
2023-04-03T07:05:10.122Z,6.30
2023-04-03T07:07:40.513Z,6.47
2023-04-03T07:10:10.803Z,6.84
2023-04-03T07:12:39.972Z,7.13
2023-04-03T07:15:09.937Z,7.14
2023-04-03T07:17:39.021Z,7.20
2023-04-03T07:20:09.347Z,7.36
2023-04-03T07:22:39.516Z,7.39
2023-04-03T07:25:09.405Z,7.54
2023-04-03T07:27:38.070Z,7.77
2023-04-03T07:30:07.803Z,7.77
2023-04-03T07:32:36.712Z,7.93
2023-04-03T07:35:06.079Z,7.92
2023-04-03T07:37:34.873Z,7.94
2023-04-03T07:40:05.677Z,7.94
2023-04-03T07:42:34.346Z,7.92
2023-04-03T07:45:03.452Z,7.95
2023-04-03T07:47:33.072Z,7.95
2023-04-03T07:50:01.740Z,7.75
2023-04-03T07:52:30.843Z,7.63
2023-04-03T07:55:00.329Z,7.53
2023-04-03T07:57:31.901Z,7.51
2023-04-03T08:00:00.573Z,7.50
2023-04-03T08:02:29.209Z,7.39
2023-04-03T08:04:58.279Z,7.38
2023-04-03T08:07:28.597Z,7.43
2023-04-03T08:09:57.272Z,8.00
2023-04-03T08:12:25.989Z,8.20
2023-04-03T08:14:56.310Z,8.21
2023-04-03T08:17:25.040Z,8.04
2023-04-03T08:19:53.921Z,7.91
2023-04-03T08:22:22.641Z,7.76
2023-04-03T08:24:58.660Z,7.62
2023-04-03T08:27:28.934Z,7.58
2023-04-03T08:29:59.073Z,7.75
2023-04-03T08:32:28.234Z,8.03
2023-04-03T08:34:57.357Z,8.21
2023-04-03T08:37:26.082Z,8.51
2023-04-03T08:39:54.822Z,8.75
2023-04-03T08:42:39.794Z,8.69
2023-04-03T08:45:14.913Z,8.39
2023-04-03T08:47:49.706Z,8.07
2023-04-03T08:50:22.332Z,8.28
2023-04-03T08:52:54.714Z,8.42
2023-04-03T08:55:28.294Z,8.66
2023-04-03T08:58:03.642Z,8.73
2023-04-03T09:00:43.976Z,8.89
2023-04-03T09:03:16.349Z,8.85
2023-04-03T09:05:53.584Z,8.82
2023-04-03T09:08:27.522Z,8.81
2023-04-03T09:11:09.578Z,8.83
2023-04-03T09:13:43.960Z,8.89
2023-04-03T09:16:33.271Z,8.85
2023-04-03T09:19:16.982Z,9.05
2023-04-03T09:21:45.935Z,8.99
2023-04-03T09:24:18.992Z,8.83
2023-04-03T09:26:52.498Z,9.00
2023-04-03T09:29:24.104Z,8.87
2023-04-03T09:32:00.893Z,8.80
2023-04-03T09:34:32.817Z,8.91
2023-04-03T09:37:06.949Z,8.83
2023-04-03T09:39:52.163Z,9.07
2023-04-03T09:42:23.676Z,9.31
2023-04-03T09:44:57.522Z,9.20
2023-04-03T09:47:30.445Z,9.04
2023-04-03T09:50:25.132Z,8.99
2023-04-03T09:52:54.244Z,9.07
2023-04-03T09:55:28.474Z,9.22
2023-04-03T09:57:59.353Z,9.25
2023-04-03T10:00:31.138Z,9.45
2023-04-03T10:03:01.793Z,9.34
2023-04-03T10:05:36.301Z,9.50
2023-04-03T10:08:24.675Z,9.34
2023-04-03T10:11:13.826Z,9.06
2023-04-03T10:13:55.078Z,9.20
2023-04-03T10:16:29.289Z,9.40
2023-04-03T10:19:27.944Z,9.62
2023-04-03T10:22:00.350Z,9.61
2023-04-03T10:24:38.383Z,9.55
2023-04-03T10:27:12.404Z,9.35
2023-04-03T10:29:46.301Z,9.33
2023-04-03T10:32:44.040Z,9.05
2023-04-03T10:35:22.641Z,9.06
2023-04-03T10:38:03.644Z,9.28
2023-04-03T10:40:37.785Z,9.24
2023-04-03T10:43:18.600Z,9.12
2023-04-03T10:45:58.585Z,9.30
2023-04-03T10:48:47.652Z,9.56
2023-04-03T10:51:28.813Z,9.69
2023-04-03T10:54:03.367Z,9.42
2023-04-03T10:56:38.491Z,9.33
2023-04-03T10:59:21.343Z,9.65
2023-04-03T11:01:54.220Z,9.82
2023-04-03T11:04:26.793Z,9.78
2023-04-03T11:07:03.074Z,9.54
2023-04-03T11:09:38.396Z,9.35
2023-04-03T11:12:13.627Z,9.40
2023-04-03T11:14:43.215Z,9.56
2023-04-03T11:17:22.755Z,9.28
2023-04-03T11:19:59.700Z,9.04
2023-04-03T11:22:33.480Z,8.73
2023-04-03T11:25:07.575Z,8.52
2023-04-03T11:27:45.054Z,8.40
2023-04-03T11:30:22.534Z,8.45
2023-04-03T11:33:18.703Z,8.13
2023-04-03T11:35:51.688Z,8.05
2023-04-03T11:38:27.432Z,7.89
2023-04-03T11:40:57.956Z,8.06
2023-04-03T11:43:30.485Z,8.33
2023-04-03T11:46:02.157Z,8.59
2023-04-03T11:48:50.356Z,8.57
2023-04-03T11:51:40.816Z,8.61
2023-04-03T11:54:35.332Z,8.73
2023-04-03T11:57:33.463Z,8.70
2023-04-03T12:00:19.571Z,8.92
2023-04-03T12:02:54.314Z,9.24
2023-04-03T12:05:29.077Z,9.29
2023-04-03T12:08:20.044Z,9.33
2023-04-03T12:11:22.555Z,8.83
2023-04-03T12:14:07.409Z,8.71
2023-04-03T12:16:48.611Z,8.55
2023-04-03T12:19:42.803Z,9.03
2023-04-03T12:22:20.558Z,9.09
2023-04-03T12:24:51.843Z,9.06
2023-04-03T12:27:31.463Z,9.22
2023-04-03T12:30:14.932Z,9.16
2023-04-03T12:33:12.014Z,9.21
2023-04-03T12:35:52.455Z,9.16
2023-04-03T12:38:44.178Z,9.29
2023-04-03T12:41:33.433Z,9.39
2023-04-03T12:44:27.327Z,9.68
2023-04-03T12:46:56.722Z,9.50
2023-04-03T12:49:38.503Z,9.31
2023-04-03T12:52:19.142Z,9.36
2023-04-03T12:54:49.244Z,9.67
2023-04-03T12:57:21.675Z,9.83
2023-04-03T12:59:50.750Z,9.65
2023-04-03T13:02:26.533Z,9.39
2023-04-03T13:05:00.603Z,9.41
2023-04-03T13:07:34.731Z,9.30
2023-04-03T13:10:16.709Z,9.32
2023-04-03T13:12:53.480Z,9.36
2023-04-03T13:15:26.208Z,9.51
2023-04-03T13:17:56.101Z,9.72
2023-04-03T13:20:30.512Z,9.49
2023-04-03T13:23:02.654Z,9.44
2023-04-03T13:25:35.053Z,9.55
2023-04-03T13:28:13.893Z,9.79
2023-04-03T13:30:44.165Z,9.91
2023-04-03T13:33:24.076Z,9.69
2023-04-03T13:36:00.806Z,9.54
2023-04-03T13:38:34.148Z,9.83
2023-04-03T13:41:06.717Z,9.86
2023-04-03T13:43:38.434Z,9.70
2023-04-03T13:46:25.012Z,9.68
2023-04-03T13:48:56.307Z,9.41
2023-04-03T13:51:28.893Z,9.54
2023-04-03T13:53:59.945Z,9.35
2023-04-03T13:56:34.655Z,9.28
2023-04-03T13:59:08.318Z,9.28
2023-04-03T14:01:47.008Z,9.51
2023-04-03T14:04:20.679Z,9.51
2023-04-03T14:06:52.850Z,9.52
2023-04-03T14:09:22.860Z,9.41
2023-04-03T14:11:54.825Z,9.49
2023-04-03T14:14:25.887Z,9.62
2023-04-03T14:16:59.451Z,9.66
2023-04-03T14:19:30.941Z,9.51
2023-04-03T14:22:02.132Z,9.38
2023-04-03T14:24:30.873Z,9.22
2023-04-03T14:26:59.883Z,9.20
2023-04-03T14:29:28.781Z,9.12
2023-04-03T14:32:11.473Z,9.14
2023-04-03T14:34:44.210Z,9.14
2023-04-03T14:37:17.355Z,9.13
2023-04-03T14:39:48.999Z,9.20
2023-04-03T14:42:20.309Z,9.18
2023-04-03T14:44:49.184Z,9.09
2023-04-03T14:47:30.575Z,9.07
2023-04-03T14:50:01.285Z,8.89
2023-04-03T14:52:34.233Z,8.97
2023-04-03T14:55:04.185Z,8.94
2023-04-03T14:57:33.941Z,8.83
2023-04-03T15:00:04.925Z,8.67
2023-04-03T15:02:36.099Z,8.62
2023-04-03T15:05:08.139Z,8.68
2023-04-03T15:07:40.840Z,8.60
2023-04-03T15:10:19.012Z,8.45
2023-04-03T15:12:48.909Z,8.46
2023-04-03T15:15:18.897Z,8.53
2023-04-03T15:17:48.906Z,8.25
2023-04-03T15:20:19.778Z,8.25
2023-04-03T15:22:50.038Z,8.21
2023-04-03T15:25:19.350Z,8.00
2023-04-03T15:27:48.156Z,7.92
2023-04-03T15:30:19.578Z,7.81
2023-04-03T15:32:49.895Z,7.58
2023-04-03T15:35:19.046Z,7.36
2023-04-03T15:37:49.131Z,7.23
2023-04-03T15:40:19.549Z,7.18
2023-04-03T15:42:48.352Z,7.23
2023-04-03T15:45:17.142Z,7.19
2023-04-03T15:47:45.948Z,7.04
2023-04-03T15:50:14.790Z,6.92
2023-04-03T15:52:43.588Z,6.80
2023-04-03T15:55:12.330Z,6.76
2023-04-03T15:57:42.571Z,6.65
2023-04-03T16:00:12.759Z,6.63
2023-04-03T16:02:42.840Z,6.60
2023-04-03T16:05:11.971Z,6.64
2023-04-03T16:07:41.611Z,6.66
2023-04-03T16:10:12.395Z,6.62
2023-04-03T16:12:42.758Z,6.54
2023-04-03T16:15:12.850Z,6.45
2023-04-03T16:17:43.661Z,6.34
2023-04-03T16:20:14.283Z,6.31
2023-04-03T16:22:43.840Z,6.21
2023-04-03T16:25:13.168Z,6.12
2023-04-03T16:27:43.306Z,6.02
2023-04-03T16:30:13.352Z,5.82
2023-04-03T16:32:42.770Z,5.95
2023-04-03T16:35:12.793Z,5.91
2023-04-03T16:37:42.091Z,5.94
2023-04-03T16:40:13.218Z,5.95
2023-04-03T16:42:43.781Z,5.93
2023-04-03T16:45:12.984Z,5.83
2023-04-03T16:47:42.485Z,5.75
2023-04-03T16:50:12.236Z,5.69
2023-04-03T16:52:40.995Z,5.71
2023-04-03T16:55:11.101Z,5.65
2023-04-03T16:57:39.726Z,5.58
2023-04-03T17:00:11.622Z,5.52
2023-04-03T17:02:41.025Z,5.48
2023-04-03T17:05:10.329Z,5.45
2023-04-03T17:07:39.639Z,5.45
2023-04-03T17:10:09.688Z,5.40
2023-04-03T17:12:38.478Z,5.34
2023-04-03T17:15:08.340Z,5.29
2023-04-03T17:17:39.068Z,5.31
2023-04-03T17:20:09.476Z,5.28
2023-04-03T17:22:38.394Z,5.24
2023-04-03T17:25:08.339Z,5.15
2023-04-03T17:27:37.248Z,5.18
2023-04-03T17:30:06.785Z,5.18
2023-04-03T17:32:35.617Z,5.18
2023-04-03T17:35:06.240Z,5.14
2023-04-03T17:37:35.084Z,5.04
2023-04-03T17:40:03.936Z,5.01
2023-04-03T17:42:32.880Z,4.90
2023-04-03T17:45:01.557Z,4.80
2023-04-03T17:47:30.293Z,4.75
2023-04-03T17:49:59.048Z,4.77
2023-04-03T17:52:29.390Z,4.68
2023-04-03T17:54:58.329Z,4.70
2023-04-03T17:57:27.021Z,4.70
2023-04-03T17:59:55.805Z,4.69
2023-04-03T18:02:24.880Z,4.64
2023-04-03T18:04:54.364Z,4.66
2023-04-03T18:07:23.262Z,4.69
2023-04-03T18:09:54.167Z,4.72
2023-04-03T18:12:23.624Z,4.64
2023-04-03T18:14:52.393Z,4.57
2023-04-03T18:17:22.679Z,4.54
2023-04-03T18:19:52.968Z,4.48
2023-04-03T18:22:24.578Z,4.46
2023-04-03T18:24:55.475Z,4.44
2023-04-03T18:27:28.200Z,4.46
2023-04-03T18:30:02.002Z,4.44
2023-04-03T18:32:30.764Z,4.44
2023-04-03T18:35:01.117Z,4.41
2023-04-03T18:37:30.300Z,4.37
2023-04-03T18:40:00.409Z,4.36
2023-04-03T18:42:29.858Z,4.31
2023-04-03T18:45:02.351Z,4.35
2023-04-03T18:47:31.587Z,4.37
2023-04-03T18:50:00.661Z,4.36
2023-04-03T18:52:29.472Z,4.24
2023-04-03T18:54:59.864Z,4.21
2023-04-03T18:57:28.680Z,4.14
2023-04-03T18:59:57.516Z,4.13
2023-04-03T19:02:27.136Z,4.14
2023-04-03T19:04:56.207Z,4.14
2023-04-03T19:07:25.053Z,4.11
2023-04-03T19:09:54.997Z,4.07
2023-04-03T19:12:26.391Z,4.06
2023-04-03T19:14:55.182Z,4.02
2023-04-03T19:17:23.904Z,3.98
2023-04-03T19:19:52.701Z,3.97
2023-04-03T19:22:21.496Z,3.93
2023-04-03T19:24:50.308Z,3.94
2023-04-03T19:27:18.996Z,3.91
2023-04-03T19:29:50.719Z,3.90
2023-04-03T19:32:19.733Z,3.88
2023-04-03T19:34:48.522Z,3.86
2023-04-03T19:37:17.535Z,3.83
2023-04-03T19:39:46.713Z,3.84
2023-04-03T19:42:15.582Z,3.80
2023-04-03T19:44:45.105Z,3.76
2023-04-03T19:47:16.612Z,3.73
2023-04-03T19:49:45.413Z,3.70
2023-04-03T19:52:14.117Z,3.71
2023-04-03T19:54:42.843Z,3.70
2023-04-03T19:57:11.802Z,3.67
2023-04-03T19:59:40.583Z,3.66
2023-04-03T20:02:09.375Z,3.63
2023-04-03T20:04:39.782Z,3.62
2023-04-03T20:07:08.541Z,3.65
2023-04-03T20:09:37.429Z,3.67
2023-04-03T20:12:09.756Z,3.67
2023-04-03T20:14:39.893Z,3.65
2023-04-03T20:17:08.791Z,3.61
2023-04-03T20:19:37.912Z,3.57
2023-04-03T20:22:08.353Z,3.57
2023-04-03T20:24:37.292Z,3.58
2023-04-03T20:27:06.016Z,3.60
2023-04-03T20:29:37.437Z,3.66
2023-04-03T20:32:07.713Z,3.70
2023-04-03T20:34:36.513Z,3.67
2023-04-03T20:37:06.292Z,3.75
2023-04-03T20:39:36.898Z,3.78
2023-04-03T20:42:05.823Z,3.75
2023-04-03T20:44:34.607Z,3.72
2023-04-03T20:47:03.678Z,3.64
2023-04-03T20:49:32.566Z,3.61
2023-04-03T20:52:01.824Z,3.59
2023-04-03T20:54:30.562Z,3.54
2023-04-03T20:57:00.801Z,3.52
2023-04-03T20:59:32.005Z,3.49
2023-04-03T21:02:01.304Z,3.47
2023-04-03T21:04:34.391Z,3.43
2023-04-03T21:07:24.911Z,3.44
2023-04-03T21:10:14.772Z,3.42
2023-04-03T21:13:06.658Z,3.40
2023-04-03T21:15:49.331Z,3.35
2023-04-03T21:18:40.631Z,3.27
2023-04-03T21:21:19.499Z,3.23
2023-04-03T21:23:49.884Z,3.21
2023-04-03T21:26:19.683Z,3.15
2023-04-03T21:28:49.355Z,3.14
2023-04-03T21:31:17.812Z,3.15
2023-04-03T21:33:47.976Z,3.11
2023-04-03T21:36:16.709Z,3.09
2023-04-03T21:38:46.170Z,3.13
2023-04-03T21:41:14.994Z,3.10
2023-04-03T21:43:43.674Z,3.09
2023-04-03T21:46:12.928Z,3.04
2023-04-03T21:48:41.829Z,3.01
2023-04-03T21:51:11.958Z,3.01
2023-04-03T21:53:41.816Z,3.00
2023-04-03T21:56:10.538Z,3.01
2023-04-03T21:58:39.372Z,3.01
2023-04-03T22:01:12.188Z,2.99
2023-04-03T22:03:41.833Z,2.98
2023-04-03T22:06:12.958Z,2.75
2023-04-03T22:08:42.555Z,2.89
2023-04-03T22:11:13.018Z,2.86
2023-04-03T22:13:42.247Z,2.82
2023-04-03T22:16:12.268Z,2.80
2023-04-03T22:18:41.126Z,2.78
2023-04-03T22:21:11.855Z,2.60
2023-04-03T22:23:40.596Z,2.78
2023-04-03T22:26:10.563Z,2.78
2023-04-03T22:28:41.427Z,2.79
2023-04-03T22:31:10.992Z,2.79
2023-04-03T22:33:40.211Z,2.76
2023-04-03T22:36:10.921Z,2.73
2023-04-03T22:38:43.662Z,2.72
2023-04-03T22:41:13.066Z,2.54
2023-04-03T22:43:43.007Z,2.75
2023-04-03T22:46:11.957Z,2.75
2023-04-03T22:48:43.823Z,2.66
2023-04-03T22:51:12.682Z,2.72
2023-04-03T22:53:42.824Z,2.70
2023-04-03T22:56:12.556Z,2.70
2023-04-03T22:58:41.059Z,2.67
2023-04-03T23:01:11.902Z,2.61
2023-04-03T23:03:42.904Z,2.60
2023-04-03T23:06:13.762Z,2.59
2023-04-03T23:08:45.260Z,2.65
2023-04-03T23:11:14.140Z,2.63
2023-04-03T23:13:44.257Z,2.67
2023-04-03T23:16:13.284Z,2.69
2023-04-03T23:18:43.831Z,2.69
2023-04-03T23:21:12.659Z,2.63
2023-04-03T23:23:41.401Z,2.62
2023-04-03T23:26:12.482Z,2.64
2023-04-03T23:28:42.115Z,2.66
2023-04-03T23:31:11.464Z,2.65
2023-04-03T23:33:43.959Z,2.62
2023-04-03T23:36:16.341Z,2.59
2023-04-03T23:38:45.273Z,2.56
2023-04-03T23:41:15.412Z,2.55
2023-04-03T23:43:44.083Z,2.58
2023-04-03T23:46:12.822Z,2.59
2023-04-03T23:48:41.647Z,2.58
2023-04-03T23:51:10.334Z,2.56
2023-04-03T23:53:39.305Z,2.58
2023-04-03T23:56:12.692Z,2.52
2023-04-03T23:58:43.183Z,2.49
